sensor_id;sensor_type;location;lat;lon;timestamp;pressure;altitude;pressure_sealevel;temperature;humidity
8051;BME280;4068;42.158;24.732;2023-05-21T00:02:15;99396.28;;;16.59;100.00
8051;BME280;4068;42.158;24.732;2023-05-21T00:04:43;99403.34;;;16.76;100.00
8051;BME280;4068;42.158;24.732;2023-05-21T00:07:10;99369.03;;;16.55;100.00
8051;BME280;4068;42.158;24.732;2023-05-21T00:09:36;99392.78;;;16.66;100.00
8051;BME280;4068;42.158;24.732;2023-05-21T00:12:06;99393.28;;;16.62;100.00
8051;BME280;4068;42.158;24.732;2023-05-21T00:14:32;99388.41;;;16.57;100.00
8051;BME280;4068;42.158;24.732;2023-05-21T00:16:57;99387.09;;;16.61;100.00
8051;BME280;4068;42.158;24.732;2023-05-21T00:19:23;99385.56;;;16.59;100.00
8051;BME280;4068;42.158;24.732;2023-05-21T00:21:48;99381.72;;;16.61;100.00
8051;BME280;4068;42.158;24.732;2023-05-21T00:24:14;99380.41;;;16.65;100.00
8051;BME280;4068;42.158;24.732;2023-05-21T00:26:40;99370.38;;;16.59;100.00
8051;BME280;4068;42.158;24.732;2023-05-21T00:29:05;99374.72;;;16.68;100.00
8051;BME280;4068;42.158;24.732;2023-05-21T00:31:30;99376.91;;;16.65;100.00
8051;BME280;4068;42.158;24.732;2023-05-21T00:33:56;99373.19;;;16.66;100.00
8051;BME280;4068;42.158;24.732;2023-05-21T00:36:22;99370.50;;;16.66;100.00
8051;BME280;4068;42.158;24.732;2023-05-21T00:38:49;99371.84;;;16.70;100.00
8051;BME280;4068;42.158;24.732;2023-05-21T00:41:15;99360.31;;;16.61;100.00
8051;BME280;4068;42.158;24.732;2023-05-21T00:43:40;99349.63;;;16.45;100.00
8051;BME280;4068;42.158;24.732;2023-05-21T00:46:13;99367.84;;;16.49;100.00
8051;BME280;4068;42.158;24.732;2023-05-21T00:48:45;99371.00;;;16.53;100.00
8051;BME280;4068;42.158;24.732;2023-05-21T00:51:15;99368.84;;;16.48;100.00
8051;BME280;4068;42.158;24.732;2023-05-21T00:53:43;99358.31;;;16.47;100.00
8051;BME280;4068;42.158;24.732;2023-05-21T00:56:09;99359.63;;;16.43;100.00
8051;BME280;4068;42.158;24.732;2023-05-21T00:58:36;99361.81;;;16.47;100.00
8051;BME280;4068;42.158;24.732;2023-05-21T01:01:03;99357.94;;;16.42;100.00
8051;BME280;4068;42.158;24.732;2023-05-21T01:03:31;99354.09;;;16.36;100.00
8051;BME280;4068;42.158;24.732;2023-05-21T01:06:04;99326.50;;;16.11;100.00
8051;BME280;4068;42.158;24.732;2023-05-21T01:08:30;99324.16;;;16.08;100.00
8051;BME280;4068;42.158;24.732;2023-05-21T01:10:56;99357.25;;;16.23;100.00
8051;BME280;4068;42.158;24.732;2023-05-21T01:13:23;99330.81;;;16.12;100.00
8051;BME280;4068;42.158;24.732;2023-05-21T01:15:50;99337.84;;;16.13;100.00
8051;BME280;4068;42.158;24.732;2023-05-21T01:18:18;99355.44;;;16.24;100.00
8051;BME280;4068;42.158;24.732;2023-05-21T01:20:44;99349.41;;;16.13;100.00
8051;BME280;4068;42.158;24.732;2023-05-21T01:23:18;99340.34;;;16.06;100.00
8051;BME280;4068;42.158;24.732;2023-05-21T01:25:45;99351.91;;;16.15;100.00
8051;BME280;4068;42.158;24.732;2023-05-21T01:28:11;99352.59;;;16.17;100.00
8051;BME280;4068;42.158;24.732;2023-05-21T01:30:37;99353.09;;;16.20;100.00
8051;BME280;4068;42.158;24.732;2023-05-21T01:33:17;99354.91;;;16.20;100.00
8051;BME280;4068;42.158;24.732;2023-05-21T01:35:53;99346.91;;;16.20;100.00
8051;BME280;4068;42.158;24.732;2023-05-21T01:38:27;99349.25;;;16.23;100.00
8051;BME280;4068;42.158;24.732;2023-05-21T01:41:02;99345.22;;;16.27;100.00
8051;BME280;4068;42.158;24.732;2023-05-21T01:43:32;99345.06;;;16.29;100.00
8051;BME280;4068;42.158;24.732;2023-05-21T01:45:58;99331.19;;;16.25;100.00
8051;BME280;4068;42.158;24.732;2023-05-21T01:48:26;99334.03;;;16.24;100.00
8051;BME280;4068;42.158;24.732;2023-05-21T01:50:53;99338.56;;;16.31;100.00
8051;BME280;4068;42.158;24.732;2023-05-21T01:53:20;99335.22;;;16.37;100.00
8051;BME280;4068;42.158;24.732;2023-05-21T01:55:46;99331.53;;;16.30;100.00
8051;BME280;4068;42.158;24.732;2023-05-21T01:58:13;99338.88;;;16.28;100.00
8051;BME280;4068;42.158;24.732;2023-05-21T02:00:40;99339.41;;;16.24;100.00
8051;BME280;4068;42.158;24.732;2023-05-21T02:03:06;99336.22;;;16.28;100.00
8051;BME280;4068;42.158;24.732;2023-05-21T02:05:32;99307.41;;;16.05;100.00
8051;BME280;4068;42.158;24.732;2023-05-21T02:07:57;99305.75;;;16.04;100.00
8051;BME280;4068;42.158;24.732;2023-05-21T02:10:24;99329.19;;;16.19;100.00
8051;BME280;4068;42.158;24.732;2023-05-21T02:12:49;99325.16;;;16.23;100.00
8051;BME280;4068;42.158;24.732;2023-05-21T02:15:15;99302.44;;;16.11;100.00
8051;BME280;4068;42.158;24.732;2023-05-21T02:17:47;99329.88;;;16.29;100.00
8051;BME280;4068;42.158;24.732;2023-05-21T02:20:15;99330.88;;;16.28;100.00
8051;BME280;4068;42.158;24.732;2023-05-21T02:22:45;99329.69;;;16.31;100.00
8051;BME280;4068;42.158;24.732;2023-05-21T02:25:13;99329.69;;;16.22;100.00
8051;BME280;4068;42.158;24.732;2023-05-21T02:27:39;99312.78;;;16.14;100.00
8051;BME280;4068;42.158;24.732;2023-05-21T02:30:07;99331.53;;;16.30;100.00
8051;BME280;4068;42.158;24.732;2023-05-21T02:32:33;99305.94;;;16.19;100.00
8051;BME280;4068;42.158;24.732;2023-05-21T02:35:00;99329.19;;;16.27;100.00
8051;BME280;4068;42.158;24.732;2023-05-21T02:37:26;99331.38;;;16.32;100.00
8051;BME280;4068;42.158;24.732;2023-05-21T02:39:52;99307.94;;;16.26;100.00
8051;BME280;4068;42.158;24.732;2023-05-21T02:42:18;99337.06;;;16.37;100.00
8051;BME280;4068;42.158;24.732;2023-05-21T02:44:44;99299.25;;;16.24;100.00
8051;BME280;4068;42.158;24.732;2023-05-21T02:47:09;99299.28;;;16.32;100.00
8051;BME280;4068;42.158;24.732;2023-05-21T02:49:36;99297.41;;;16.32;100.00
8051;BME280;4068;42.158;24.732;2023-05-21T02:52:02;99321.19;;;16.44;100.00
8051;BME280;4068;42.158;24.732;2023-05-21T02:54:27;99328.53;;;16.42;100.00
8051;BME280;4068;42.158;24.732;2023-05-21T02:56:53;99328.22;;;16.45;100.00
8051;BME280;4068;42.158;24.732;2023-05-21T02:59:18;99320.84;;;16.47;100.00
8051;BME280;4068;42.158;24.732;2023-05-21T03:01:44;99333.53;;;16.53;100.00
8051;BME280;4068;42.158;24.732;2023-05-21T03:04:09;99320.84;;;16.55;100.00
8051;BME280;4068;42.158;24.732;2023-05-21T03:06:35;99321.66;;;16.55;100.00
8051;BME280;4068;42.158;24.732;2023-05-21T03:09:02;99304.44;;;16.50;100.00
8051;BME280;4068;42.158;24.732;2023-05-21T03:11:27;99328.88;;;16.63;100.00
8051;BME280;4068;42.158;24.732;2023-05-21T03:13:53;99328.38;;;16.60;100.00
8051;BME280;4068;42.158;24.732;2023-05-21T03:16:18;99298.44;;;16.56;100.00
8051;BME280;4068;42.158;24.732;2023-05-21T03:18:43;99334.22;;;16.63;100.00
8051;BME280;4068;42.158;24.732;2023-05-21T03:21:09;99319.16;;;16.54;100.00
8051;BME280;4068;42.158;24.732;2023-05-21T03:23:38;99335.22;;;16.62;100.00
8051;BME280;4068;42.158;24.732;2023-05-21T03:26:04;99339.75;;;16.53;100.00
8051;BME280;4068;42.158;24.732;2023-05-21T03:28:30;99333.72;;;16.60;100.00
8051;BME280;4068;42.158;24.732;2023-05-21T03:30:55;99314.16;;;16.51;100.00
8051;BME280;4068;42.158;24.732;2023-05-21T03:33:21;99330.22;;;16.59;100.00
8051;BME280;4068;42.158;24.732;2023-05-21T03:35:47;99343.44;;;16.69;100.00
8051;BME280;4068;42.158;24.732;2023-05-21T03:38:12;99327.50;;;16.67;100.00
8051;BME280;4068;42.158;24.732;2023-05-21T03:40:38;99321.16;;;16.68;100.00
8051;BME280;4068;42.158;24.732;2023-05-21T03:43:03;99344.44;;;16.76;100.00
8051;BME280;4068;42.158;24.732;2023-05-21T03:45:29;99337.22;;;16.77;100.00
8051;BME280;4068;42.158;24.732;2023-05-21T03:47:54;99324.66;;;16.77;100.00
8051;BME280;4068;42.158;24.732;2023-05-21T03:50:21;99330.53;;;16.97;100.00
8051;BME280;4068;42.158;24.732;2023-05-21T03:52:46;99335.69;;;17.07;100.00
8051;BME280;4068;42.158;24.732;2023-05-21T03:55:11;99329.69;;;16.97;100.00
8051;BME280;4068;42.158;24.732;2023-05-21T03:57:37;99340.59;;;16.95;100.00
8051;BME280;4068;42.158;24.732;2023-05-21T04:00:03;99333.53;;;16.94;100.00
8051;BME280;4068;42.158;24.732;2023-05-21T04:02:30;99336.56;;;16.99;100.00
8051;BME280;4068;42.158;24.732;2023-05-21T04:04:56;99336.50;;;17.16;100.00
8051;BME280;4068;42.158;24.732;2023-05-21T04:07:21;99344.06;;;17.12;100.00
8051;BME280;4068;42.158;24.732;2023-05-21T04:09:47;99341.41;;;17.12;100.00
8051;BME280;4068;42.158;24.732;2023-05-21T04:12:12;99329.63;;;17.21;100.00
8051;BME280;4068;42.158;24.732;2023-05-21T04:14:38;99323.59;;;17.36;100.00
8051;BME280;4068;42.158;24.732;2023-05-21T04:17:04;99337.09;;;17.51;100.00
8051;BME280;4068;42.158;24.732;2023-05-21T04:19:30;99308.25;;;17.53;100.00
8051;BME280;4068;42.158;24.732;2023-05-21T04:21:55;99311.22;;;17.66;100.00
8051;BME280;4068;42.158;24.732;2023-05-21T04:24:22;99316.41;;;17.68;100.00
8051;BME280;4068;42.158;24.732;2023-05-21T04:26:48;99333.59;;;17.82;100.00
8051;BME280;4068;42.158;24.732;2023-05-21T04:29:14;99338.63;;;17.85;100.00
8051;BME280;4068;42.158;24.732;2023-05-21T04:31:42;99335.56;;;17.88;100.00
8051;BME280;4068;42.158;24.732;2023-05-21T04:34:08;99305.94;;;17.81;100.00
8051;BME280;4068;42.158;24.732;2023-05-21T04:36:33;99335.38;;;17.98;100.00
8051;BME280;4068;42.158;24.732;2023-05-21T04:39:00;99328.53;;;18.18;100.00
8051;BME280;4068;42.158;24.732;2023-05-21T04:41:26;99321.94;;;18.29;100.00
8051;BME280;4068;42.158;24.732;2023-05-21T04:43:52;99335.25;;;18.45;100.00
8051;BME280;4068;42.158;24.732;2023-05-21T04:46:20;99335.41;;;18.44;100.00
8051;BME280;4068;42.158;24.732;2023-05-21T04:48:51;99341.84;;;18.35;100.00
8051;BME280;4068;42.158;24.732;2023-05-21T04:51:19;99302.91;;;18.16;100.00
8051;BME280;4068;42.158;24.732;2023-05-21T04:53:45;99308.63;;;18.13;100.00
8051;BME280;4068;42.158;24.732;2023-05-21T04:56:12;99342.41;;;18.30;100.00
8051;BME280;4068;42.158;24.732;2023-05-21T04:58:37;99335.81;;;18.33;100.00
8051;BME280;4068;42.158;24.732;2023-05-21T05:01:04;99343.00;;;18.40;99.27
8051;BME280;4068;42.158;24.732;2023-05-21T05:03:30;99338.16;;;18.36;99.60
8051;BME280;4068;42.158;24.732;2023-05-21T05:05:55;99333.94;;;18.41;99.11
8051;BME280;4068;42.158;24.732;2023-05-21T05:08:21;99324.31;;;18.47;99.41
8051;BME280;4068;42.158;24.732;2023-05-21T05:10:46;99340.91;;;18.51;99.51
8051;BME280;4068;42.158;24.732;2023-05-21T05:13:12;99335.25;;;18.45;99.50
8051;BME280;4068;42.158;24.732;2023-05-21T05:15:37;99347.75;;;18.53;99.06
8051;BME280;4068;42.158;24.732;2023-05-21T05:18:02;99328.06;;;18.38;99.55
8051;BME280;4068;42.158;24.732;2023-05-21T05:20:28;99329.25;;;18.35;99.64
8051;BME280;4068;42.158;24.732;2023-05-21T05:22:53;99350.63;;;18.52;100.00
8051;BME280;4068;42.158;24.732;2023-05-21T05:25:19;99324.19;;;18.40;100.00
8051;BME280;4068;42.158;24.732;2023-05-21T05:27:45;99355.56;;;18.63;98.86
8051;BME280;4068;42.158;24.732;2023-05-21T05:30:10;99332.28;;;18.55;98.74
8051;BME280;4068;42.158;24.732;2023-05-21T05:32:36;99362.09;;;18.84;98.31
8051;BME280;4068;42.158;24.732;2023-05-21T05:35:02;99362.44;;;19.04;96.33
8051;BME280;4068;42.158;24.732;2023-05-21T05:37:27;99355.63;;;19.01;95.60
8051;BME280;4068;42.158;24.732;2023-05-21T05:39:53;99362.84;;;19.16;95.46
8051;BME280;4068;42.158;24.732;2023-05-21T05:42:18;99358.13;;;19.03;95.79
8051;BME280;4068;42.158;24.732;2023-05-21T05:44:44;99380.19;;;19.13;95.84
8051;BME280;4068;42.158;24.732;2023-05-21T05:47:09;99383.06;;;19.11;96.61
8051;BME280;4068;42.158;24.732;2023-05-21T05:49:35;99393.81;;;19.11;97.08
8051;BME280;4068;42.158;24.732;2023-05-21T05:52:01;99378.75;;;19.02;97.81
8051;BME280;4068;42.158;24.732;2023-05-21T05:54:26;99377.00;;;18.94;98.89
8051;BME280;4068;42.158;24.732;2023-05-21T05:56:52;99365.88;;;18.97;99.94
8051;BME280;4068;42.158;24.732;2023-05-21T05:59:17;99363.38;;;18.96;100.00
8051;BME280;4068;42.158;24.732;2023-05-21T06:01:43;99373.50;;;19.24;98.13
8051;BME280;4068;42.158;24.732;2023-05-21T06:04:08;99344.88;;;19.16;95.73
8051;BME280;4068;42.158;24.732;2023-05-21T06:06:33;99350.59;;;19.28;95.08
8051;BME280;4068;42.158;24.732;2023-05-21T06:08:59;99378.88;;;19.54;95.93
8051;BME280;4068;42.158;24.732;2023-05-21T06:11:25;99382.78;;;19.66;95.61
8051;BME280;4068;42.158;24.732;2023-05-21T06:13:50;99362.09;;;19.37;96.43
8051;BME280;4068;42.158;24.732;2023-05-21T06:16:16;99388.00;;;19.53;97.66
8051;BME280;4068;42.158;24.732;2023-05-21T06:18:42;99375.66;;;19.43;97.77
8051;BME280;4068;42.158;24.732;2023-05-21T06:21:07;99378.81;;;19.62;98.76
8051;BME280;4068;42.158;24.732;2023-05-21T06:23:32;99360.78;;;19.77;98.35
8051;BME280;4068;42.158;24.732;2023-05-21T06:26:00;99362.19;;;19.73;96.80
8051;BME280;4068;42.158;24.732;2023-05-21T06:28:26;99353.97;;;19.60;96.55
8051;BME280;4068;42.158;24.732;2023-05-21T06:30:51;99368.22;;;19.75;98.02
8051;BME280;4068;42.158;24.732;2023-05-21T06:33:17;99367.66;;;19.95;96.74
8051;BME280;4068;42.158;24.732;2023-05-21T06:35:42;99368.56;;;20.02;95.94
8051;BME280;4068;42.158;24.732;2023-05-21T06:38:07;99372.44;;;20.14;96.12
8051;BME280;4068;42.158;24.732;2023-05-21T06:40:34;99370.53;;;20.30;95.37
8051;BME280;4068;42.158;24.732;2023-05-21T06:42:59;99342.09;;;20.42;92.15
8051;BME280;4068;42.158;24.732;2023-05-21T06:45:25;99373.25;;;20.73;92.13
8051;BME280;4068;42.158;24.732;2023-05-21T06:47:50;99366.25;;;20.79;91.88
8051;BME280;4068;42.158;24.732;2023-05-21T06:50:16;99362.69;;;20.72;89.61
8051;BME280;4068;42.158;24.732;2023-05-21T06:52:41;99364.56;;;20.71;90.25
8051;BME280;4068;42.158;24.732;2023-05-21T06:55:07;99348.03;;;20.59;91.37
8051;BME280;4068;42.158;24.732;2023-05-21T06:57:32;99358.63;;;20.82;90.06
8051;BME280;4068;42.158;24.732;2023-05-21T06:59:58;99354.47;;;20.58;88.63
8051;BME280;4068;42.158;24.732;2023-05-21T07:02:24;99353.81;;;20.78;88.46
8051;BME280;4068;42.158;24.732;2023-05-21T07:04:49;99370.53;;;21.23;87.51
8051;BME280;4068;42.158;24.732;2023-05-21T07:07:16;99366.41;;;21.55;84.68
8051;BME280;4068;42.158;24.732;2023-05-21T07:09:41;99366.53;;;21.82;82.89
8051;BME280;4068;42.158;24.732;2023-05-21T07:12:06;99379.28;;;22.02;80.08
8051;BME280;4068;42.158;24.732;2023-05-21T07:14:32;99375.97;;;22.06;78.90
8051;BME280;4068;42.158;24.732;2023-05-21T07:16:57;99361.59;;;21.93;78.21
8051;BME280;4068;42.158;24.732;2023-05-21T07:19:23;99370.38;;;22.08;78.69
8051;BME280;4068;42.158;24.732;2023-05-21T07:21:48;99344.78;;;21.91;78.12
8051;BME280;4068;42.158;24.732;2023-05-21T07:24:14;99371.91;;;22.37;78.02
8051;BME280;4068;42.158;24.732;2023-05-21T07:26:39;99367.59;;;22.56;76.43
8051;BME280;4068;42.158;24.732;2023-05-21T07:29:05;99350.13;;;22.46;75.38
8051;BME280;4068;42.158;24.732;2023-05-21T07:31:30;99372.19;;;22.69;74.87
8051;BME280;4068;42.158;24.732;2023-05-21T07:33:56;99369.03;;;22.52;76.98
8051;BME280;4068;42.158;24.732;2023-05-21T07:36:21;99378.41;;;22.63;74.98
8051;BME280;4068;42.158;24.732;2023-05-21T07:38:46;99346.59;;;22.58;75.64
8051;BME280;4068;42.158;24.732;2023-05-21T07:41:12;99370.09;;;23.05;74.38
8051;BME280;4068;42.158;24.732;2023-05-21T07:43:37;99371.34;;;23.29;71.10
8051;BME280;4068;42.158;24.732;2023-05-21T07:46:03;99373.13;;;23.69;68.39
8051;BME280;4068;42.158;24.732;2023-05-21T07:48:28;99379.25;;;24.03;65.97
8051;BME280;4068;42.158;24.732;2023-05-21T07:50:54;99377.38;;;24.10;64.70
8051;BME280;4068;42.158;24.732;2023-05-21T07:53:20;99384.38;;;24.56;62.71
8051;BME280;4068;42.158;24.732;2023-05-21T07:55:46;99380.53;;;24.71;61.40
8051;BME280;4068;42.158;24.732;2023-05-21T07:58:18;99381.06;;;24.54;62.42
8051;BME280;4068;42.158;24.732;2023-05-21T08:00:48;99377.13;;;24.82;59.76
8051;BME280;4068;42.158;24.732;2023-05-21T08:03:15;99381.56;;;25.02;59.10
8051;BME280;4068;42.158;24.732;2023-05-21T08:05:44;99380.06;;;25.06;58.58
8051;BME280;4068;42.158;24.732;2023-05-21T08:08:16;99375.72;;;25.23;56.23
8051;BME280;4068;42.158;24.732;2023-05-21T08:10:43;99341.53;;;25.41;55.46
8051;BME280;4068;42.158;24.732;2023-05-21T08:13:10;99356.09;;;25.65;54.37
8051;BME280;4068;42.158;24.732;2023-05-21T08:15:35;99373.50;;;25.76;53.93
8051;BME280;4068;42.158;24.732;2023-05-21T08:18:01;99371.00;;;25.93;51.68
8051;BME280;4068;42.158;24.732;2023-05-21T08:20:26;99373.84;;;26.47;50.52
8051;BME280;4068;42.158;24.732;2023-05-21T08:22:53;99371.88;;;26.66;50.42
8051;BME280;4068;42.158;24.732;2023-05-21T08:25:19;99369.09;;;26.84;49.67
8051;BME280;4068;42.158;24.732;2023-05-21T08:27:44;99370.44;;;26.94;50.52
8051;BME280;4068;42.158;24.732;2023-05-21T08:30:10;99362.28;;;26.63;50.02
8051;BME280;4068;42.158;24.732;2023-05-21T08:32:36;99351.28;;;27.12;48.50
8051;BME280;4068;42.158;24.732;2023-05-21T08:35:01;99378.34;;;27.66;48.02
8051;BME280;4068;42.158;24.732;2023-05-21T08:37:28;99370.63;;;27.75;47.10
8051;BME280;4068;42.158;24.732;2023-05-21T08:39:53;99384.84;;;28.18;45.01
8051;BME280;4068;42.158;24.732;2023-05-21T08:42:29;99380.47;;;28.17;46.09
8051;BME280;4068;42.158;24.732;2023-05-21T08:44:59;99375.31;;;28.32;44.92
8051;BME280;4068;42.158;24.732;2023-05-21T08:47:25;99370.69;;;28.50;42.92
8051;BME280;4068;42.158;24.732;2023-05-21T08:49:54;99368.22;;;28.48;41.93
8051;BME280;4068;42.158;24.732;2023-05-21T08:52:20;99377.03;;;28.38;40.44
8051;BME280;4068;42.158;24.732;2023-05-21T08:54:47;99376.97;;;27.93;41.08
8051;BME280;4068;42.158;24.732;2023-05-21T08:57:16;99338.13;;;27.85;43.28
8051;BME280;4068;42.158;24.732;2023-05-21T08:59:43;99362.94;;;27.72;43.79
8051;BME280;4068;42.158;24.732;2023-05-21T09:02:12;99355.63;;;27.49;44.90
8051;BME280;4068;42.158;24.732;2023-05-21T09:04:41;99344.53;;;27.38;43.93
8051;BME280;4068;42.158;24.732;2023-05-21T09:07:08;99360.22;;;27.60;43.01
8051;BME280;4068;42.158;24.732;2023-05-21T09:09:46;99355.25;;;27.57;42.94
8051;BME280;4068;42.158;24.732;2023-05-21T09:12:13;99360.63;;;27.93;42.39
8051;BME280;4068;42.158;24.732;2023-05-21T09:14:39;99361.28;;;28.12;42.50
8051;BME280;4068;42.158;24.732;2023-05-21T09:17:07;99359.03;;;28.37;41.80
8051;BME280;4068;42.158;24.732;2023-05-21T09:19:32;99359.41;;;28.58;40.00
8051;BME280;4068;42.158;24.732;2023-05-21T09:22:02;99366.38;;;28.83;37.25
8051;BME280;4068;42.158;24.732;2023-05-21T09:24:33;99292.78;;;28.54;36.72
8051;BME280;4068;42.158;24.732;2023-05-21T09:26:58;99362.16;;;28.92;36.27
8051;BME280;4068;42.158;24.732;2023-05-21T09:29:23;99357.09;;;29.18;37.29
8051;BME280;4068;42.158;24.732;2023-05-21T09:31:50;99347.16;;;29.12;36.65
8051;BME280;4068;42.158;24.732;2023-05-21T09:34:16;99328.59;;;28.74;36.85
8051;BME280;4068;42.158;24.732;2023-05-21T09:36:41;99344.44;;;28.44;36.85
8051;BME280;4068;42.158;24.732;2023-05-21T09:39:08;99361.28;;;28.12;38.72
8051;BME280;4068;42.158;24.732;2023-05-21T09:41:36;99371.63;;;27.45;41.08
8051;BME280;4068;42.158;24.732;2023-05-21T09:44:02;99343.91;;;27.25;42.51
8051;BME280;4068;42.158;24.732;2023-05-21T09:46:39;99360.25;;;27.25;41.41
8051;BME280;4068;42.158;24.732;2023-05-21T09:49:05;99369.16;;;26.66;42.92
8051;BME280;4068;42.158;24.732;2023-05-21T09:51:30;99362.59;;;26.85;43.19
8051;BME280;4068;42.158;24.732;2023-05-21T09:53:56;99337.53;;;26.83;43.39
8051;BME280;4068;42.158;24.732;2023-05-21T09:56:23;99364.28;;;26.86;43.28
8051;BME280;4068;42.158;24.732;2023-05-21T09:58:53;99346.59;;;26.65;42.68
8051;BME280;4068;42.158;24.732;2023-05-21T10:01:19;99368.38;;;26.89;43.60
8051;BME280;4068;42.158;24.732;2023-05-21T10:03:49;99362.84;;;27.08;43.23
8051;BME280;4068;42.158;24.732;2023-05-21T10:06:16;99361.91;;;27.14;42.05
8051;BME280;4068;42.158;24.732;2023-05-21T10:08:44;99355.28;;;27.10;42.95
8051;BME280;4068;42.158;24.732;2023-05-21T10:11:12;99362.03;;;26.95;43.36
8051;BME280;4068;42.158;24.732;2023-05-21T10:13:40;99351.16;;;26.41;43.94
8051;BME280;4068;42.158;24.732;2023-05-21T10:16:08;99370.53;;;26.14;45.01
8051;BME280;4068;42.158;24.732;2023-05-21T10:18:35;99374.84;;;25.85;46.01
8051;BME280;4068;42.158;24.732;2023-05-21T10:21:02;99326.91;;;25.42;45.22
8051;BME280;4068;42.158;24.732;2023-05-21T10:23:28;99354.66;;;25.44;48.48
8051;BME280;4068;42.158;24.732;2023-05-21T10:25:55;99349.16;;;25.07;50.64
8051;BME280;4068;42.158;24.732;2023-05-21T10:28:21;99358.47;;;24.92;52.01
8051;BME280;4068;42.158;24.732;2023-05-21T10:30:46;99357.16;;;25.02;51.50
8051;BME280;4068;42.158;24.732;2023-05-21T10:33:14;99357.75;;;25.04;51.49
8051;BME280;4068;42.158;24.732;2023-05-21T10:35:45;99363.41;;;25.21;52.08
8051;BME280;4068;42.158;24.732;2023-05-21T10:38:12;99365.38;;;25.39;50.54
8051;BME280;4068;42.158;24.732;2023-05-21T10:40:38;99371.59;;;25.95;49.36
8051;BME280;4068;42.158;24.732;2023-05-21T10:51:43;99370.72;;;27.80;45.14
8051;BME280;4068;42.158;24.732;2023-05-21T10:59:49;99366.44;;;29.22;39.95
8051;BME280;4068;42.158;24.732;2023-05-21T11:02:15;99367.13;;;29.29;40.48
8051;BME280;4068;42.158;24.732;2023-05-21T11:04:45;99358.03;;;29.23;38.42
8051;BME280;4068;42.158;24.732;2023-05-21T11:07:14;99368.78;;;28.79;38.68
8051;BME280;4068;42.158;24.732;2023-05-21T11:09:39;99361.91;;;29.10;37.97
8051;BME280;4068;42.158;24.732;2023-05-21T11:12:05;99355.50;;;29.22;38.42
8051;BME280;4068;42.158;24.732;2023-05-21T11:14:36;99348.22;;;29.44;36.86
8051;BME280;4068;42.158;24.732;2023-05-21T11:21:59;99359.94;;;29.45;37.28
8051;BME280;4068;42.158;24.732;2023-05-21T11:24:25;99356.19;;;28.95;38.42
8051;BME280;4068;42.158;24.732;2023-05-21T11:29:38;99356.81;;;28.05;40.35
8051;BME280;4068;42.158;24.732;2023-05-21T11:32:05;99351.00;;;27.61;41.25
8051;BME280;4068;42.158;24.732;2023-05-21T11:34:45;99349.94;;;27.62;41.89
8051;BME280;4068;42.158;24.732;2023-05-21T11:39:45;99341.91;;;27.96;40.98
8051;BME280;4068;42.158;24.732;2023-05-21T11:42:11;99350.19;;;28.01;41.03
8051;BME280;4068;42.158;24.732;2023-05-21T11:44:44;99349.44;;;28.06;41.72
8051;BME280;4068;42.158;24.732;2023-05-21T11:47:19;99334.28;;;27.58;42.25
8051;BME280;4068;42.158;24.732;2023-05-21T11:49:45;99342.84;;;27.37;42.34
8051;BME280;4068;42.158;24.732;2023-05-21T11:52:12;99341.78;;;27.03;43.02
8051;BME280;4068;42.158;24.732;2023-05-21T11:54:49;99338.78;;;26.57;43.72
8051;BME280;4068;42.158;24.732;2023-05-21T11:57:16;99330.31;;;25.74;45.20
8051;BME280;4068;42.158;24.732;2023-05-21T11:59:47;99331.91;;;25.20;46.91
8051;BME280;4068;42.158;24.732;2023-05-21T12:02:14;99327.41;;;24.88;47.66
8051;BME280;4068;42.158;24.732;2023-05-21T12:04:44;99316.38;;;24.58;49.43
8051;BME280;4068;42.158;24.732;2023-05-21T12:07:10;99327.38;;;24.38;50.66
8051;BME280;4068;42.158;24.732;2023-05-21T12:09:50;99305.56;;;23.94;51.37
8051;BME280;4068;42.158;24.732;2023-05-21T12:12:17;99325.63;;;23.73;52.21
8051;BME280;4068;42.158;24.732;2023-05-21T12:14:51;99306.59;;;23.41;51.68
8051;BME280;4068;42.158;24.732;2023-05-21T12:17:19;99322.03;;;23.34;52.66
8051;BME280;4068;42.158;24.732;2023-05-21T12:19:46;99307.28;;;23.09;54.04
8051;BME280;4068;42.158;24.732;2023-05-21T12:22:13;99312.50;;;22.91;55.08
8051;BME280;4068;42.158;24.732;2023-05-21T12:24:40;99315.81;;;22.93;55.42
8051;BME280;4068;42.158;24.732;2023-05-21T12:27:08;99316.88;;;22.92;55.77
8051;BME280;4068;42.158;24.732;2023-05-21T12:29:35;99320.00;;;22.82;57.56
8051;BME280;4068;42.158;24.732;2023-05-21T12:32:03;99323.31;;;22.71;56.52
8051;BME280;4068;42.158;24.732;2023-05-21T12:37:06;99312.09;;;22.81;55.89
8051;BME280;4068;42.158;24.732;2023-05-21T12:39:36;99312.28;;;22.86;56.71
8051;BME280;4068;42.158;24.732;2023-05-21T12:42:01;99318.72;;;22.91;57.55
8051;BME280;4068;42.158;24.732;2023-05-21T12:44:30;99313.31;;;23.18;57.10
8051;BME280;4068;42.158;24.732;2023-05-21T12:46:56;99311.34;;;23.46;56.25
8051;BME280;4068;42.158;24.732;2023-05-21T12:49:42;99313.88;;;23.99;56.13
8051;BME280;4068;42.158;24.732;2023-05-21T12:52:12;99301.44;;;24.23;56.56
8051;BME280;4068;42.158;24.732;2023-05-21T12:54:39;99308.38;;;24.44;55.99
8051;BME280;4068;42.158;24.732;2023-05-21T12:57:17;99310.91;;;24.71;54.15
8051;BME280;4068;42.158;24.732;2023-05-21T13:02:13;99299.03;;;25.35;51.42
8051;BME280;4068;42.158;24.732;2023-05-21T13:04:38;99288.38;;;25.14;51.02
8051;BME280;4068;42.158;24.732;2023-05-21T13:07:04;99304.94;;;25.25;52.71
8051;BME280;4068;42.158;24.732;2023-05-21T13:09:29;99277.81;;;25.06;52.56
8051;BME280;4068;42.158;24.732;2023-05-21T13:11:55;99301.66;;;25.23;53.77
8051;BME280;4068;42.158;24.732;2023-05-21T13:14:20;99306.69;;;25.56;53.05
8051;BME280;4068;42.158;24.732;2023-05-21T13:16:46;99295.69;;;25.70;51.58
8051;BME280;4068;42.158;24.732;2023-05-21T13:19:11;99273.88;;;25.76;51.35
8051;BME280;4068;42.158;24.732;2023-05-21T13:21:39;99305.00;;;26.23;50.28
8051;BME280;4068;42.158;24.732;2023-05-21T13:24:05;99302.94;;;26.37;49.20
8051;BME280;4068;42.158;24.732;2023-05-21T13:26:32;99307.44;;;26.55;46.72
8051;BME280;4068;42.158;24.732;2023-05-21T13:28:57;99301.75;;;26.44;44.02
8051;BME280;4068;42.158;24.732;2023-05-21T13:31:22;99285.88;;;26.29;43.78
8051;BME280;4068;42.158;24.732;2023-05-21T13:33:48;99299.59;;;26.46;44.07
8051;BME280;4068;42.158;24.732;2023-05-21T13:36:13;99305.91;;;26.16;44.11